METAR Formatted Surface Weather Observation
Issued by NWS

Home | Current Version | Previous Version | Text Only | Print | Product List | Glossary On
Versions: 1
488
SAUS46 KLOX 212355
MTRNZY
METAR KNZY 212352Z 30009KT 10SM SCT030 BKN200 14/07 A3003 RMK AO2
SLP167 60000 T01440072 10156 20111 53012 $



USA.gov is the U.S. government's official web portal to all federal, state and local government web resources and services.